Terminal Aerodrome Forecast
Issued by NWS

Home | Current Version | Previous Version | Text Only | Print | Product List | Glossary On
Versions: 1 2 3 4 5 6 7 8 9 10 11 12 13 14 15 16 17 18 19 20 21 22 23 24 25
000
FTUS41 KPBZ 211600 AAA
TAFDUJ
TAF AMD
KDUJ 211618Z 2116/2212 25008KT P6SM BKN050
      TEMPO 2116/2117 2SM TSRA BKN020CB
     FM220300 VRB03KT P6SM SCT050
     FM220800 VRB03KT 4SM BR SCT040=

USA.gov is the U.S. government's official web portal to all federal, state and local government web resources and services.